Time;durP1;ratioP1;P1;durP2;ratioP2;P2;SDS_P1;SDS_P2;PMS_P1;PMS_P2;Temp;Humidity;BMP_temperature;BMP_pressure;BME280_temperature;BME280_humidity;BME280_pressure;Samples;Min_cycle;Max_cycle;Signal;HPM_P1;HPM_P2
2022/07/02 00:02:19;;;;;;;1.58;1.40;;;16.30;99.90;;;;;;4950324;29;20031;-87
2022/07/02 00:04:57;;;;;;;1.83;1.23;;;16.40;99.90;;;;;;4952242;29;20016;-87
2022/07/02 00:07:24;;;;;;;3.55;1.60;;;16.30;99.90;;;;;;4950827;28;20036;-90
2022/07/02 00:09:50;;;;;;;2.85;1.48;;;16.40;99.90;;;;;;4951131;28;20047;-89
2022/07/02 00:12:16;;;;;;;2.38;1.40;;;16.40;99.90;;;;;;4947215;29;20515;-87
2022/07/02 00:14:42;;;;;;;1.90;1.45;;;16.40;99.90;;;;;;4947073;29;20024;-88
2022/07/02 00:17:09;;;;;;;1.95;1.60;;;16.30;99.90;;;;;;4946935;28;20032;-88
2022/07/02 00:19:36;;;;;;;5.40;1.80;;;16.30;99.90;;;;;;4947257;29;20575;-89
2022/07/02 00:22:03;;;;;;;1.73;1.63;;;16.40;99.90;;;;;;4947115;28;20091;-88
2022/07/02 00:24:28;;;;;;;1.85;1.40;;;16.40;99.90;;;;;;4965750;23;20047;-84
2022/07/02 00:26:59;;;;;;;3.15;1.80;;;16.40;99.90;;;;;;4946378;29;20063;-83
2022/07/02 00:29:44;;;;;;;3.67;1.60;;;16.40;99.90;;;;;;4948592;29;20043;-80
2022/07/02 00:32:11;;;;;;;2.90;1.60;;;16.40;99.90;;;;;;4948665;29;20040;-83
2022/07/02 00:34:38;;;;;;;2.55;1.63;;;16.50;99.90;;;;;;4950341;29;20055;-83
2022/07/02 00:37:08;;;;;;;2.13;1.35;;;16.50;99.90;;;;;;4948347;29;20217;-84
2022/07/02 00:39:34;;;;;;;1.38;1.27;;;16.50;99.90;;;;;;4944453;29;20031;-83
2022/07/02 00:42:03;;;;;;;2.38;1.50;;;16.40;99.90;;;;;;4949991;29;20031;-82
2022/07/02 00:44:30;;;;;;;1.98;1.55;;;16.40;99.90;;;;;;4958327;29;20016;-82
2022/07/02 00:47:05;;;;;;;5.00;1.30;;;16.40;99.90;;;;;;4961133;28;20103;-82
2022/07/02 00:49:33;;;;;;;2.15;1.60;;;16.40;99.90;;;;;;4961011;28;20056;-81
2022/07/02 00:51:59;;;;;;;1.70;1.60;;;16.30;99.90;;;;;;4958570;28;20099;-83
2022/07/02 00:54:26;;;;;;;1.35;1.25;;;16.30;99.90;;;;;;4947194;29;20032;-82
2022/07/02 00:56:52;;;;;;;1.35;1.25;;;16.30;99.90;;;;;;4946255;29;20063;-84
2022/07/02 00:59:22;;;;;;;2.85;1.35;;;16.30;99.90;;;;;;4946589;29;20032;-82
2022/07/02 01:01:49;;;;;;;1.50;1.40;;;16.30;99.90;;;;;;4945223;29;20108;-83
2022/07/02 01:04:16;;;;;;;2.15;1.73;;;16.30;99.90;;;;;;4945607;29;20023;-83
2022/07/02 01:06:43;;;;;;;5.47;1.52;;;16.30;99.90;;;;;;4929733;29;20068;-83
2022/07/02 01:11:59;;;;;;;1.50;1.40;;;16.30;99.90;;;;;;4944347;29;20035;-84
2022/07/02 01:14:25;;;;;;;2.53;1.60;;;16.30;99.90;;;;;;4945099;29;20035;-84
2022/07/02 01:16:52;;;;;;;1.33;1.23;;;16.30;99.90;;;;;;4944212;29;20031;-84
2022/07/02 01:19:19;;;;;;;4.55;1.35;;;16.30;99.90;;;;;;4946311;29;20020;-84
2022/07/02 01:22:24;;;;;;;1.35;1.25;;;16.30;99.90;;;;;;4950903;29;20023;-82
2022/07/02 01:24:53;;;;;;;1.58;1.48;;;16.20;99.90;;;;;;4889326;29;20063;-83
2022/07/02 01:27:20;;;;;;;1.88;1.40;;;16.20;99.90;;;;;;4891266;29;20033;-83
2022/07/02 01:29:46;;;;;;;1.38;1.27;;;16.10;99.90;;;;;;4910647;29;20075;-82
2022/07/02 01:32:13;;;;;;;1.50;1.40;;;16.10;99.90;;;;;;4949494;29;20689;-84
2022/07/02 01:34:41;;;;;;;1.52;1.35;;;16.10;99.90;;;;;;4953247;29;20059;-84
2022/07/02 01:37:11;;;;;;;1.42;1.33;;;16.10;99.90;;;;;;4950722;29;20050;-85
2022/07/02 01:39:38;;;;;;;3.15;1.63;;;16.10;99.90;;;;;;4942894;29;20039;-84
2022/07/02 01:42:05;;;;;;;2.38;1.23;;;16.10;99.90;;;;;;4944705;29;20023;-85
2022/07/02 01:44:31;;;;;;;1.55;1.45;;;16.00;99.90;;;;;;4944550;29;20039;-82
2022/07/02 01:46:57;;;;;;;4.70;1.50;;;16.10;99.90;;;;;;4944781;29;20083;-84
2022/07/02 01:49:23;;;;;;;3.30;1.67;;;16.00;99.90;;;;;;4944065;29;20031;-84
2022/07/02 01:51:49;;;;;;;4.57;1.65;;;16.00;99.90;;;;;;4943842;29;20075;-84
2022/07/02 01:54:15;;;;;;;1.55;1.45;;;16.00;99.90;;;;;;4944304;29;20024;-82
2022/07/02 01:56:40;;;;;;;3.65;1.40;;;15.90;99.90;;;;;;4945175;29;20488;-82
2022/07/02 01:59:07;;;;;;;3.13;1.65;;;15.90;99.90;;;;;;4943652;29;20047;-83
2022/07/02 02:01:33;;;;;;;3.95;1.90;;;15.90;99.90;;;;;;4943382;29;20019;-83
2022/07/02 02:03:59;;;;;;;2.83;1.48;;;15.90;99.90;;;;;;4943906;29;20103;-82
2022/07/02 02:06:27;;;;;;;2.80;1.67;;;15.80;99.90;;;;;;4948507;29;20038;-82
2022/07/02 02:08:53;;;;;;;3.55;1.70;;;15.90;99.90;;;;;;4952072;29;20035;-83
2022/07/02 02:11:18;;;;;;;2.08;1.50;;;15.80;99.90;;;;;;4953118;29;20052;-83
2022/07/02 02:13:44;;;;;;;2.83;1.73;;;15.80;99.90;;;;;;4954339;29;20063;-84
2022/07/02 02:16:10;;;;;;;1.77;1.65;;;15.80;99.90;;;;;;4953766;29;20048;-82
2022/07/02 02:18:36;;;;;;;4.10;1.77;;;15.80;99.90;;;;;;4953987;29;20076;-84
2022/07/02 02:21:02;;;;;;;3.00;1.42;;;15.80;99.90;;;;;;4954473;29;20059;-82
2022/07/02 02:23:28;;;;;;;2.55;1.63;;;15.90;99.90;;;;;;4933753;29;20023;-85
2022/07/02 02:25:53;;;;;;;4.57;1.60;;;15.80;99.90;;;;;;4948046;29;20087;-84
2022/07/02 02:28:20;;;;;;;3.13;1.42;;;15.90;99.90;;;;;;4946461;29;20038;-83
2022/07/02 02:30:45;;;;;;;1.50;1.40;;;15.90;99.90;;;;;;4951600;29;20038;-83
2022/07/02 02:33:11;;;;;;;4.43;1.10;;;15.90;99.90;;;;;;4954832;29;20058;-82
2022/07/02 02:35:37;;;;;;;2.20;1.63;;;15.90;99.90;;;;;;4955719;29;20040;-82
2022/07/02 02:38:03;;;;;;;3.90;1.60;;;15.90;99.90;;;;;;4957515;29;20019;-82
2022/07/02 02:40:28;;;;;;;2.15;1.70;;;15.90;99.90;;;;;;4955828;29;20056;-83
2022/07/02 02:42:54;;;;;;;2.03;1.65;;;15.90;99.90;;;;;;4955527;29;20036;-81
2022/07/02 02:45:20;;;;;;;2.65;1.45;;;15.90;99.90;;;;;;4957423;28;20024;-81
2022/07/02 02:47:46;;;;;;;1.80;1.58;;;15.90;99.90;;;;;;4958794;28;20032;-79
2022/07/02 02:50:11;;;;;;;1.67;1.58;;;15.90;99.90;;;;;;4958214;28;20031;-81
2022/07/02 02:52:37;;;;;;;1.83;1.50;;;15.90;99.90;;;;;;4959811;28;20034;-81
2022/07/02 02:55:03;;;;;;;4.95;1.70;;;15.80;99.90;;;;;;4959728;28;20123;-80
2022/07/02 02:57:29;;;;;;;3.05;1.75;;;15.80;99.90;;;;;;4959847;28;20075;-79
2022/07/02 02:59:55;;;;;;;1.83;1.50;;;15.80;99.90;;;;;;4959754;28;20095;-79
2022/07/02 03:02:21;;;;;;;2.70;1.70;;;15.80;99.90;;;;;;4959330;28;20031;-83
2022/07/02 03:04:46;;;;;;;6.50;1.73;;;15.80;99.90;;;;;;4958356;28;20024;-84
2022/07/02 03:07:12;;;;;;;2.08;1.40;;;15.80;99.90;;;;;;4956673;29;20030;-82
2022/07/02 03:09:38;;;;;;;3.10;1.45;;;15.80;99.90;;;;;;4957712;29;20095;-82
2022/07/02 03:12:04;;;;;;;2.95;1.40;;;15.80;99.90;;;;;;4956003;29;20031;-83
2022/07/02 03:14:30;;;;;;;2.08;1.45;;;15.80;99.90;;;;;;4955683;29;20038;-84
2022/07/02 03:16:56;;;;;;;6.22;1.65;;;15.80;99.90;;;;;;4957350;29;20087;-82
2022/07/02 03:19:21;;;;;;;4.25;1.50;;;15.80;99.90;;;;;;4958103;29;20036;-85
2022/07/02 03:21:47;;;;;;;2.15;1.50;;;15.80;99.90;;;;;;4957375;29;20025;-82
2022/07/02 03:24:13;;;;;;;4.25;1.50;;;15.80;99.90;;;;;;4957192;29;20032;-83
2022/07/02 03:26:39;;;;;;;1.98;1.40;;;15.90;99.90;;;;;;4956677;28;20038;-83
2022/07/02 03:29:05;;;;;;;1.42;1.27;;;15.80;99.90;;;;;;4957995;28;20080;-83
2022/07/02 03:31:32;;;;;;;1.80;1.60;;;15.90;99.90;;;;;;4955246;28;20027;-82
2022/07/02 03:33:58;;;;;;;3.08;1.52;;;15.90;99.90;;;;;;4956056;29;20031;-82
2022/07/02 03:36:24;;;;;;;6.05;1.30;;;15.90;99.90;;;;;;4956726;28;20016;-85
2022/07/02 03:38:50;;;;;;;1.52;1.30;;;15.90;99.90;;;;;;4952328;28;20119;-83
2022/07/02 03:41:16;;;;;;;3.50;1.35;;;15.90;99.90;;;;;;4951586;29;20051;-82
2022/07/02 03:43:42;;;;;;;5.57;1.30;;;15.90;99.90;;;;;;4953079;29;20019;-81
2022/07/02 03:46:08;;;;;;;4.63;1.40;;;16.00;99.90;;;;;;4956817;28;20031;-81
2022/07/02 03:48:34;;;;;;;1.50;1.38;;;15.90;99.90;;;;;;4957901;28;20031;-83
2022/07/02 03:51:00;;;;;;;1.33;1.15;;;15.90;99.90;;;;;;4956948;28;20117;-82
2022/07/02 03:53:25;;;;;;;5.47;1.27;;;16.00;99.90;;;;;;4957130;29;20036;-82
2022/07/02 03:55:51;;;;;;;2.63;1.20;;;16.00;99.90;;;;;;4958374;28;20035;-82
2022/07/02 03:58:17;;;;;;;2.47;1.25;;;16.00;99.90;;;;;;4958368;28;20016;-79
2022/07/02 04:00:43;;;;;;;3.25;1.20;;;16.10;99.90;;;;;;4957808;28;20028;-82
2022/07/02 04:03:08;;;;;;;4.00;1.20;;;16.10;99.90;;;;;;4962102;28;20039;-82
2022/07/02 04:05:34;;;;;;;2.85;1.15;;;16.10;99.90;;;;;;4961588;28;20043;-81
2022/07/02 04:08:00;;;;;;;4.53;1.23;;;16.20;99.90;;;;;;4962039;28;20035;-81
2022/07/02 04:10:26;;;;;;;2.10;1.00;;;16.20;99.90;;;;;;4961458;28;20032;-83
2022/07/02 04:12:52;;;;;;;1.63;0.95;;;16.20;99.90;;;;;;4945241;28;20028;-83
2022/07/02 04:15:17;;;;;;;4.13;1.10;;;16.30;99.90;;;;;;4961310;29;20044;-81
2022/07/02 04:17:43;;;;;;;4.38;1.30;;;16.30;99.90;;;;;;4960582;28;20027;-82
2022/07/02 04:20:10;;;;;;;1.58;1.33;;;16.30;99.90;;;;;;4961520;29;20297;-82
2022/07/02 04:22:35;;;;;;;1.55;1.45;;;16.30;99.90;;;;;;4960554;29;20035;-84
2022/07/02 04:25:01;;;;;;;2.17;1.27;;;16.30;99.90;;;;;;4960648;28;20088;-82
2022/07/02 04:27:27;;;;;;;1.38;1.25;;;16.40;99.90;;;;;;4960315;28;20055;-81
2022/07/02 04:29:53;;;;;;;1.27;1.13;;;16.40;99.90;;;;;;4961564;28;20020;-82
2022/07/02 04:32:19;;;;;;;3.58;1.17;;;16.40;99.90;;;;;;4961274;28;20054;-82
2022/07/02 04:34:45;;;;;;;2.20;1.23;;;16.50;99.90;;;;;;4961731;28;20032;-83
2022/07/02 04:37:10;;;;;;;4.50;1.33;;;16.50;99.90;;;;;;4960527;28;20016;-82
2022/07/02 04:39:36;;;;;;;3.92;1.33;;;16.60;99.90;;;;;;4952909;29;20035;-83
2022/07/02 04:42:02;;;;;;;1.80;1.20;;;16.60;99.90;;;;;;4957889;29;20046;-83
2022/07/02 04:44:28;;;;;;;5.38;1.33;;;16.70;99.90;;;;;;4958135;29;20040;-84
2022/07/02 04:46:55;;;;;;;3.05;1.45;;;16.80;99.90;;;;;;4956281;29;20092;-82
2022/07/02 04:49:21;;;;;;;1.80;1.23;;;16.80;99.90;;;;;;4946037;29;20023;-84
2022/07/02 04:51:47;;;;;;;1.40;1.30;;;16.80;99.90;;;;;;4949507;29;20020;-82
2022/07/02 04:54:12;;;;;;;4.93;1.20;;;17.10;99.90;;;;;;4943550;29;20053;-80
2022/07/02 04:56:38;;;;;;;3.97;1.23;;;17.70;99.90;;;;;;4943220;29;20087;-85
2022/07/02 04:59:04;;;;;;;3.08;1.10;;;18.10;99.90;;;;;;4950660;29;20141;-81
2022/07/02 05:01:30;;;;;;;1.88;1.30;;;18.20;99.90;;;;;;4959854;29;20046;-83
2022/07/02 05:03:56;;;;;;;1.40;1.30;;;18.10;99.90;;;;;;4958601;29;20048;-83
2022/07/02 05:06:22;;;;;;;1.30;1.20;;;17.90;99.90;;;;;;4946346;29;20036;-83
2022/07/02 05:08:49;;;;;;;1.63;1.20;;;17.90;99.90;;;;;;4942604;29;20039;-84
2022/07/02 05:11:16;;;;;;;1.63;1.40;;;18.00;99.90;;;;;;4942995;29;20020;-83
2022/07/02 05:13:46;;;;;;;2.60;1.20;;;18.00;99.90;;;;;;4940829;29;20055;-84
2022/07/02 05:16:12;;;;;;;3.05;1.10;;;18.00;99.90;;;;;;4954252;29;20031;-82
2022/07/02 05:18:38;;;;;;;3.00;1.35;;;18.10;99.90;;;;;;4957998;29;20087;-82
2022/07/02 05:21:05;;;;;;;2.58;1.40;;;18.10;99.90;;;;;;4958636;29;20036;-83
2022/07/02 05:23:31;;;;;;;2.90;1.33;;;18.10;99.90;;;;;;4955354;29;20054;-82
2022/07/02 05:25:57;;;;;;;2.10;1.27;;;18.10;99.90;;;;;;4957819;29;20031;-82
2022/07/02 05:28:23;;;;;;;1.45;1.27;;;18.20;99.90;;;;;;4954186;28;20032;-85
2022/07/02 05:30:51;;;;;;;6.72;1.55;;;18.20;99.90;;;;;;4945864;29;20032;-82
2022/07/02 05:33:17;;;;;;;6.38;1.55;;;18.20;99.90;;;;;;4944847;29;20039;-83
2022/07/02 05:35:43;;;;;;;1.35;1.23;;;18.20;99.90;;;;;;4943551;29;20035;-84
2022/07/02 05:38:09;;;;;;;5.80;1.45;;;18.20;99.90;;;;;;4952398;29;20102;-83
2022/07/02 05:40:35;;;;;;;5.10;1.50;;;18.20;99.90;;;;;;4958462;29;20036;-82
2022/07/02 05:43:01;;;;;;;3.28;1.67;;;18.20;99.90;;;;;;4958078;29;20028;-80
2022/07/02 05:45:27;;;;;;;1.50;1.33;;;18.20;99.90;;;;;;4959950;28;20062;-81
2022/07/02 05:47:53;;;;;;;3.20;1.40;;;18.20;99.90;;;;;;4958523;29;20031;-82
2022/07/02 05:50:19;;;;;;;4.05;1.40;;;18.20;99.90;;;;;;4958999;28;20035;-82
2022/07/02 05:52:45;;;;;;;2.40;1.38;;;18.10;99.90;;;;;;4959758;28;20047;-83
2022/07/02 05:55:11;;;;;;;6.25;1.75;;;18.20;99.90;;;;;;4958867;29;20103;-84
2022/07/02 05:57:37;;;;;;;2.35;1.50;;;18.30;99.90;;;;;;4955529;29;20035;-83
2022/07/02 06:00:05;;;;;;;5.35;1.50;;;18.30;99.90;;;;;;4952346;29;20046;-85
2022/07/02 06:02:31;;;;;;;3.25;1.55;;;18.30;99.90;;;;;;4949381;29;20032;-84
2022/07/02 06:04:57;;;;;;;5.60;1.90;;;18.40;99.90;;;;;;4947852;29;20556;-83
2022/07/02 06:07:42;;;;;;;3.88;2.08;;;18.40;99.90;;;;;;4945621;29;20032;-83
2022/07/02 06:10:09;;;;;;;2.10;1.70;;;18.40;99.90;;;;;;4946034;29;20115;-84
2022/07/02 06:12:35;;;;;;;1.65;1.42;;;18.30;99.90;;;;;;4945488;29;20047;-85
2022/07/02 06:15:01;;;;;;;2.13;1.67;;;18.50;99.90;;;;;;4943005;29;20115;-85
2022/07/02 06:17:26;;;;;;;4.20;1.88;;;18.60;99.90;;;;;;4944327;29;20059;-84
2022/07/02 06:19:53;;;;;;;5.57;1.80;;;18.70;99.90;;;;;;4941860;29;20040;-83
2022/07/02 06:22:18;;;;;;;4.22;1.65;;;18.80;99.90;;;;;;4953885;29;20063;-86
2022/07/02 06:24:45;;;;;;;5.63;1.70;;;18.90;99.90;;;;;;4969750;23;20064;-89
2022/07/02 06:27:13;;;;;;;1.83;1.52;;;18.80;99.90;;;;;;4942231;28;20068;-88
2022/07/02 06:29:40;;;;;;;5.07;1.98;;;18.90;99.90;;;;;;4958641;28;20039;-89
2022/07/02 06:32:06;;;;;;;2.05;1.40;;;19.00;99.90;;;;;;4955503;28;20027;-88
2022/07/02 06:34:32;;;;;;;1.90;1.58;;;19.10;99.90;;;;;;4935737;29;20138;-87
2022/07/02 06:36:58;;;;;;;2.17;1.30;;;19.10;99.90;;;;;;4950261;28;20107;-89
2022/07/02 06:39:24;;;;;;;2.10;1.30;;;19.10;99.90;;;;;;4949404;28;20064;-89
2022/07/02 06:44:37;;;;;;;3.20;1.40;;;19.30;99.90;;;;;;4951736;28;20038;-89
2022/07/02 06:47:03;;;;;;;1.83;1.23;;;19.30;99.90;;;;;;4951416;29;20492;-90
2022/07/02 06:49:29;;;;;;;1.75;1.25;;;19.40;99.90;;;;;;4951102;28;20492;-89
2022/07/02 06:51:55;;;;;;;1.35;1.10;;;19.50;99.90;;;;;;4934760;29;20104;-90
2022/07/02 06:54:21;;;;;;;3.72;1.42;;;19.50;99.90;;;;;;4955777;28;20026;-88
2022/07/02 06:56:47;;;;;;;2.78;1.55;;;19.60;99.90;;;;;;4959865;28;20031;-87
2022/07/02 06:59:13;;;;;;;1.83;1.17;;;19.60;99.90;;;;;;4942666;28;20026;-86
2022/07/02 07:01:39;;;;;;;4.15;1.08;;;19.60;99.90;;;;;;4943034;28;20036;-86
2022/07/02 07:04:08;;;;;;;2.20;1.52;;;19.50;99.90;;;;;;4959302;28;20058;-87
2022/07/02 07:06:38;;;;;;;7.72;1.50;;;19.60;99.90;;;;;;4958961;28;20094;-87
2022/07/02 07:09:04;;;;;;;1.17;1.08;;;19.50;99.90;;;;;;4942691;28;20022;-87
2022/07/02 07:11:30;;;;;;;1.35;1.20;;;19.60;99.90;;;;;;4941091;29;20106;-88
2022/07/02 07:13:56;;;;;;;1.27;1.17;;;19.70;99.90;;;;;;4953157;29;20036;-89
2022/07/02 07:16:22;;;;;;;3.08;1.42;;;19.80;99.90;;;;;;4950145;29;20087;-88
2022/07/02 07:21:16;;;;;;;2.35;1.45;;;19.70;99.90;;;;;;4950345;29;20146;-89
2022/07/02 07:23:42;;;;;;;3.22;1.42;;;19.60;99.90;;;;;;4951515;29;20507;-89
2022/07/02 07:26:08;;;;;;;2.40;1.50;;;19.70;99.90;;;;;;4935457;29;20040;-89
2022/07/02 07:28:34;;;;;;;1.40;1.25;;;19.80;99.90;;;;;;4952213;29;20076;-89
2022/07/02 07:31:00;;;;;;;2.33;1.50;;;19.80;99.90;;;;;;4954279;29;20039;-89
2022/07/02 07:33:26;;;;;;;6.13;1.50;;;19.90;99.90;;;;;;4957469;28;20023;-86
2022/07/02 07:35:52;;;;;;;2.55;1.48;;;19.90;99.90;;;;;;4940944;29;20046;-88
2022/07/02 07:38:18;;;;;;;8.25;2.00;;;20.00;99.90;;;;;;4960019;29;20031;-88
2022/07/02 07:40:44;;;;;;;2.85;1.48;;;20.00;99.90;;;;;;4941210;29;20046;-89
2022/07/02 07:43:10;;;;;;;2.55;1.48;;;20.20;99.90;;;;;;4960588;28;20024;-87
2022/07/02 07:45:36;;;;;;;2.60;1.40;;;20.30;99.90;;;;;;4961907;28;20026;-88
2022/07/02 07:48:03;;;;;;;1.92;1.23;;;20.30;99.90;;;;;;4961434;28;20075;-89
2022/07/02 07:50:29;;;;;;;3.28;1.45;;;20.40;99.90;;;;;;4960522;28;20027;-88
2022/07/02 07:52:55;;;;;;;2.97;1.52;;;20.40;99.90;;;;;;4961807;28;20146;-88
2022/07/02 07:55:51;;;;;;;2.33;1.20;;;20.30;99.90;;;;;;4962543;28;20039;-88
2022/07/02 07:58:20;;;;;;;2.92;1.17;;;20.10;99.90;;;;;;4962134;28;20028;-88
2022/07/02 08:00:47;;;;;;;2.95;1.50;;;20.10;99.90;;;;;;4946329;28;20104;-88
2022/07/02 08:03:17;;;;;;;5.28;1.52;;;20.00;99.90;;;;;;4962250;28;20082;-87
2022/07/02 08:05:49;;;;;;;7.50;1.63;;;20.10;99.90;;;;;;4961866;28;20091;-88
2022/07/02 08:08:15;;;;;;;1.70;1.27;;;20.30;99.90;;;;;;4945708;28;20027;-86
2022/07/02 08:10:45;;;;;;;2.35;1.10;;;20.30;99.90;;;;;;4946218;28;20015;-89
2022/07/02 08:13:11;;;;;;;2.65;1.60;;;20.40;99.90;;;;;;4958255;29;20023;-89
2022/07/02 08:15:41;;;;;;;2.30;1.33;;;20.40;99.90;;;;;;4956518;29;20095;-88
2022/07/02 08:18:08;;;;;;;4.18;1.52;;;20.60;99.90;;;;;;4957137;29;20027;-89
2022/07/02 08:20:34;;;;;;;2.22;1.40;;;20.70;99.90;;;;;;4954790;29;20034;-90
2022/07/02 08:23:01;;;;;;;2.17;1.13;;;20.60;99.90;;;;;;4956082;29;20129;-88
2022/07/02 08:25:27;;;;;;;4.50;1.30;;;20.60;99.90;;;;;;4957161;28;20024;-85
2022/07/02 08:27:53;;;;;;;2.53;1.27;;;20.70;99.90;;;;;;4962271;28;20047;-87
2022/07/02 08:30:19;;;;;;;1.48;1.20;;;20.80;99.90;;;;;;4961974;28;20027;-88
2022/07/02 08:32:45;;;;;;;1.73;1.30;;;20.90;99.90;;;;;;4961285;28;20034;-88
2022/07/02 08:35:11;;;;;;;1.50;1.25;;;21.00;99.90;;;;;;4962255;28;20020;-86
2022/07/02 08:37:37;;;;;;;2.15;1.20;;;21.10;99.90;;;;;;4961553;28;20019;-86
2022/07/02 08:40:04;;;;;;;2.97;1.30;;;21.00;99.90;;;;;;4961057;28;20035;-87
2022/07/02 08:42:31;;;;;;;4.00;1.20;;;20.80;99.90;;;;;;4960642;28;20053;-88
2022/07/02 08:45:03;;;;;;;3.22;1.30;;;20.90;99.90;;;;;;4944834;28;20027;-90
2022/07/02 08:47:31;;;;;;;0.95;0.90;;;20.90;99.90;;;;;;4944453;28;20031;-88
2022/07/02 08:50:00;;;;;;;2.35;1.08;;;21.10;99.90;;;;;;4945167;29;20032;-87
2022/07/02 08:52:28;;;;;;;2.45;1.13;;;21.20;99.90;;;;;;4955922;29;20082;-88
2022/07/02 08:54:55;;;;;;;5.00;1.17;;;21.40;99.90;;;;;;4956081;29;20028;-88
2022/07/02 08:57:22;;;;;;;2.40;1.30;;;21.60;99.90;;;;;;4956720;28;20042;-88
2022/07/02 08:59:49;;;;;;;3.10;1.40;;;21.70;99.90;;;;;;4954870;29;20058;-88
2022/07/02 09:02:18;;;;;;;2.20;1.30;;;21.70;99.90;;;;;;4955027;29;20039;-87
2022/07/02 09:04:49;;;;;;;3.75;0.98;;;21.80;99.90;;;;;;4956270;29;20082;-88
2022/07/02 09:07:16;;;;;;;2.40;1.00;;;21.70;99.70;;;;;;4954484;29;20035;-88
2022/07/02 09:09:43;;;;;;;5.75;1.08;;;21.70;99.50;;;;;;4955823;29;20046;-88
2022/07/02 09:12:14;;;;;;;1.15;1.05;;;21.80;99.30;;;;;;4940291;29;20028;-89
2022/07/02 09:14:41;;;;;;;1.08;0.90;;;21.80;99.70;;;;;;4953216;29;20055;-88
2022/07/02 09:17:08;;;;;;;3.28;1.33;;;21.90;99.80;;;;;;4937865;29;20477;-87
2022/07/02 09:19:37;;;;;;;5.43;1.40;;;21.90;99.50;;;;;;4950535;29;20023;-88
2022/07/02 09:22:04;;;;;;;2.72;1.20;;;21.90;99.20;;;;;;4935487;29;20641;-88
2022/07/02 09:24:42;;;;;;;1.48;1.10;;;21.90;99.10;;;;;;4950463;29;20034;-86
2022/07/02 09:27:11;;;;;;;2.38;1.20;;;22.00;98.90;;;;;;4947661;29;20074;-87
2022/07/02 09:29:47;;;;;;;1.63;0.93;;;22.10;98.70;;;;;;4948883;29;20028;-88
2022/07/02 09:32:15;;;;;;;2.75;1.00;;;22.10;98.70;;;;;;4951883;29;20070;-87
2022/07/02 09:34:49;;;;;;;2.13;1.10;;;22.10;98.20;;;;;;4950730;29;20047;-88
2022/07/02 09:37:31;;;;;;;2.97;1.20;;;22.10;98.60;;;;;;4950936;29;20039;-89
2022/07/02 09:40:00;;;;;;;3.80;1.27;;;22.20;98.40;;;;;;4950652;29;20115;-89
2022/07/02 09:42:27;;;;;;;2.15;1.05;;;22.30;98.50;;;;;;4950302;29;20071;-87
2022/07/02 09:44:54;;;;;;;5.88;1.20;;;22.40;98.30;;;;;;4953134;29;20046;-90
2022/07/02 09:47:31;;;;;;;2.08;1.10;;;22.40;98.30;;;;;;4956067;29;20036;-89
2022/07/02 09:50:01;;;;;;;3.22;1.10;;;22.90;98.10;;;;;;4941603;29;20039;-89
2022/07/02 09:52:30;;;;;;;1.83;1.38;;;23.40;97.20;;;;;;4955944;29;20039;-89
2022/07/02 09:54:57;;;;;;;6.65;1.30;;;23.90;96.20;;;;;;4938896;29;20039;-88
2022/07/02 09:57:23;;;;;;;2.67;1.20;;;24.30;95.30;;;;;;4954834;28;20028;-89
2022/07/02 09:59:49;;;;;;;1.92;0.98;;;24.80;94.70;;;;;;4956736;28;20103;-88
2022/07/02 10:02:24;;;;;;;2.03;1.10;;;25.20;94.00;;;;;;4940719;28;20015;-89
2022/07/02 10:04:53;;;;;;;;;;;25.50;93.30;;;;;;4958315;28;20036;-89
2022/07/02 10:07:21;;;;;;;3.90;0.90;;;26.00;93.00;;;;;;4953162;29;19919;-89
2022/07/02 10:09:49;;;;;;;0.95;0.80;;;26.60;91.90;;;;;;4956203;28;20048;-88
2022/07/02 10:12:16;;;;;;;2.10;0.90;;;26.90;91.00;;;;;;4960406;28;20026;-90
2022/07/02 10:14:47;;;;;;;4.60;1.00;;;27.70;89.20;;;;;;4960035;28;20015;-89
2022/07/02 10:17:15;;;;;;;1.17;0.80;;;28.50;85.40;;;;;;4959982;28;20039;-87
2022/07/02 10:19:41;;;;;;;2.53;1.10;;;29.20;83.50;;;;;;4960481;28;20039;-89
2022/07/02 10:22:07;;;;;;;1.30;1.05;;;30.30;80.30;;;;;;4960582;28;20027;-88
2022/07/02 10:24:34;;;;;;;1.33;0.88;;;30.80;78.10;;;;;;4960003;28;20027;-87
2022/07/02 10:27:02;;;;;;;3.40;1.00;;;30.60;77.10;;;;;;4959695;28;20027;-88
2022/07/02 10:29:28;;;;;;;4.07;0.95;;;30.80;76.40;;;;;;4943685;28;20095;-89
2022/07/02 10:32:16;;;;;;;0.82;0.80;;;31.20;74.40;;;;;;4959684;28;20036;-88
2022/07/02 10:35:00;;;;;;;2.25;0.90;;;32.10;72.00;;;;;;4959967;28;20019;-90
2022/07/02 10:37:26;;;;;;;0.80;0.80;;;33.10;69.60;;;;;;4958875;28;20071;-88
2022/07/02 10:40:04;;;;;;;1.48;1.05;;;34.50;66.70;;;;;;4957563;29;20023;-88
2022/07/02 10:42:41;;;;;;;1.08;0.90;;;34.60;65.00;;;;;;4956334;28;20054;-89
2022/07/02 10:45:15;;;;;;;2.10;0.88;;;35.40;62.00;;;;;;4953174;29;20040;-90
2022/07/02 10:48:01;;;;;;;3.97;1.00;;;35.80;60.70;;;;;;4937287;29;20136;-87
2022/07/02 10:50:39;;;;;;;0.80;0.70;;;36.40;60.00;;;;;;4952409;29;20035;-89
2022/07/02 10:53:17;;;;;;;4.05;0.70;;;37.20;58.40;;;;;;4951837;29;20042;-88
2022/07/02 10:55:59;;;;;;;4.15;0.90;;;37.40;56.80;;;;;;4935334;29;20186;-88
2022/07/02 10:58:35;;;;;;;1.00;0.90;;;37.00;56.60;;;;;;4953396;29;20043;-89
2022/07/02 11:01:22;;;;;;;2.15;1.00;;;37.10;55.30;;;;;;4943655;28;20023;-90
2022/07/02 11:06:30;;;;;;;12.55;0.93;;;37.90;54.40;;;;;;4902877;26;20046;-90
2022/07/02 11:08:56;;;;;;;0.93;0.93;;;38.10;54.10;;;;;;4958232;28;20024;-88
2022/07/02 11:11:22;;;;;;;1.55;1.05;;;38.30;53.40;;;;;;4941798;29;20026;-89
2022/07/02 11:14:17;;;;;;;4.30;1.08;;;38.80;52.90;;;;;;4958248;28;20023;-90
2022/07/02 11:17:15;;;;;;;2.15;0.80;;;39.50;52.10;;;;;;4942619;29;20035;-91
2022/07/02 11:19:41;;;;;;;2.15;0.90;;;40.00;50.80;;;;;;4942326;28;20055;-90
2022/07/02 11:22:07;;;;;;;1.00;0.70;;;39.70;50.20;;;;;;4958405;28;20095;-91
2022/07/02 11:24:33;;;;;;;1.67;0.90;;;39.90;50.30;;;;;;4942071;28;20030;-89
2022/07/02 11:27:00;;;;;;;0.80;0.80;;;39.50;49.30;;;;;;4957513;29;20036;-89
2022/07/02 11:29:29;;;;;;;3.25;1.00;;;39.30;49.40;;;;;;4958396;28;20020;-89
2022/07/02 11:31:58;;;;;;;1.50;0.90;;;39.00;49.80;;;;;;4954023;28;20042;-88
2022/07/02 11:34:28;;;;;;;3.28;0.90;;;39.20;49.70;;;;;;4952111;29;20043;-89
2022/07/02 11:36:55;;;;;;;1.23;0.80;;;39.00;49.50;;;;;;4937754;29;20059;-89
2022/07/02 11:39:23;;;;;;;0.80;0.80;;;38.60;50.00;;;;;;4936730;29;20118;-90
2022/07/02 11:41:50;;;;;;;1.23;1.08;;;39.20;49.60;;;;;;4953072;28;20044;-88
2022/07/02 11:44:24;;;;;;;0.98;0.90;;;39.10;49.60;;;;;;4956633;29;20059;-90
2022/07/02 11:46:53;;;;;;;;;;;39.20;49.00;;;;;;4955791;28;20073;-89
2022/07/02 11:49:25;;;;;;;1.75;0.80;;;39.80;48.60;;;;;;4952951;29;19907;-89
2022/07/02 11:51:53;;;;;;;2.35;0.90;;;40.10;48.10;;;;;;4953789;29;20032;-89
2022/07/02 11:54:20;;;;;;;0.80;0.75;;;40.50;47.60;;;;;;4954390;29;20051;-88
2022/07/02 11:56:48;;;;;;;1.08;0.80;;;41.20;45.90;;;;;;4954634;29;20083;-89
2022/07/02 11:59:16;;;;;;;3.60;0.98;;;41.30;46.40;;;;;;4955164;28;20059;-88
2022/07/02 12:01:43;;;;;;;1.35;1.10;;;41.10;46.80;;;;;;4945914;29;20107;-87
2022/07/02 12:04:12;;;;;;;2.88;0.90;;;41.40;46.20;;;;;;4931401;29;20036;-88
2022/07/02 12:06:40;;;;;;;4.55;2.22;;;41.30;46.00;;;;;;4947382;29;20507;-88
2022/07/02 12:09:11;;;;;;;1.98;1.45;;;41.10;45.90;;;;;;4950568;29;20095;-88
2022/07/02 12:11:39;;;;;;;1.83;0.90;;;41.30;46.00;;;;;;4951905;29;20040;-89
2022/07/02 12:14:07;;;;;;;1.17;0.52;;;41.40;45.50;;;;;;4938557;29;20024;-88
2022/07/02 12:16:34;;;;;;;1.50;1.40;;;41.50;45.50;;;;;;4956267;28;20073;-88
2022/07/02 12:19:13;;;;;;;1.55;1.00;;;41.30;45.70;;;;;;4941526;29;20032;-90
2022/07/02 12:21:40;;;;;;;2.08;0.95;;;41.20;45.70;;;;;;4958373;28;20063;-88
2022/07/02 12:24:24;;;;;;;2.75;0.90;;;41.20;45.70;;;;;;4945756;28;20092;-89
2022/07/02 12:26:53;;;;;;;1.60;0.93;;;40.90;45.80;;;;;;4981140;23;20043;-83
2022/07/02 12:32:17;;;;;;;0.98;0.90;;;41.40;45.80;;;;;;4962396;28;20040;-84
2022/07/02 12:34:42;;;;;;;0.98;0.85;;;41.60;45.10;;;;;;4961298;28;20043;-85
2022/07/02 12:37:29;;;;;;;0.77;0.77;;;40.70;45.30;;;;;;4961086;28;20151;-85
2022/07/02 12:40:17;;;;;;;1.45;1.10;;;41.00;45.10;;;;;;4952126;28;20035;-85
2022/07/02 12:42:44;;;;;;;0.90;0.88;;;41.50;44.10;;;;;;4947287;29;20058;-87
2022/07/02 12:45:19;;;;;;;1.40;0.80;;;41.40;44.70;;;;;;4948177;29;20024;-86
2022/07/02 12:47:55;;;;;;;0.82;0.80;;;41.70;44.80;;;;;;4950350;29;20035;-86
2022/07/02 12:50:21;;;;;;;3.90;1.10;;;41.50;44.50;;;;;;4947613;29;20113;-86
2022/07/02 12:52:55;;;;;;;5.03;1.13;;;42.00;44.20;;;;;;4948319;29;20041;-86
2022/07/02 12:55:26;;;;;;;1.20;1.05;;;42.60;43.60;;;;;;4953271;29;20023;-86
2022/07/02 12:57:58;;;;;;;1.38;1.08;;;42.70;43.80;;;;;;4959268;28;20115;-83
2022/07/02 13:00:24;;;;;;;2.47;0.77;;;42.20;43.70;;;;;;4961196;28;20024;-86
2022/07/02 13:02:58;;;;;;;2.50;1.00;;;42.20;43.80;;;;;;4955398;28;20032;-86
2022/07/02 13:05:23;;;;;;;;;;;42.20;43.70;;;;;;4933816;29;20036;-86
2022/07/02 13:07:49;;;;;;;2.13;0.93;;;42.30;43.50;;;;;;4953255;29;19915;-86